CDT,Max TemperatureF,Mean TemperatureF,Min TemperatureF,Max Dew PointF,MeanDew PointF,Min DewpointF,Max Humidity, Mean Humidity, Min Humidity, Max Sea Level PressureIn, Mean Sea Level PressureIn, Min Sea Level PressureIn, Max VisibilityMiles, Mean VisibilityMiles, Min VisibilityMiles, Max Wind SpeedMPH, Mean Wind SpeedMPH, Max Gust SpeedMPH,PrecipitationIn, CloudCover, Events, WindDirDegrees
2011-10-1,66,51,36,40,36,33,92,62,31,30.38,30.31,30.23,10,10,10,9,3,14,0.00,0,,48
2011-10-2,74,53,32,41,34,29,96,58,19,30.35,30.28,30.21,10,10,9,8,1,10,0.00,0,,202
2011-10-3,80,57,34,45,36,30,92,55,17,30.29,30.24,30.20,10,10,10,8,1,14,0.00,0,,204
2011-10-4,83,62,40,46,39,35,86,52,18,30.29,30.22,30.17,10,10,10,14,5,26,0.00,0,,167
2011-10-5,84,64,44,47,42,39,80,51,22,30.23,30.17,30.11,10,10,10,15,7,22,0.00,0,,163
2011-10-6,85,66,46,50,46,42,86,55,23,30.19,30.13,30.07,10,10,10,22,10,32,0.00,0,,152
2011-10-7,85,72,58,54,50,45,80,55,30,30.19,30.14,30.10,10,10,10,24,13,31,0.00,0,,168
2011-10-8,84,70,55,54,50,45,83,56,28,30.23,30.19,30.15,10,10,10,25,11,31,0.00,0,,162
2011-10-9,82,66,50,55,50,47,96,66,35,30.29,30.20,30.14,10,10,8,20,8,25,0.00,0,,135
2011-10-10,76,63,49,56,51,45,86,66,46,30.14,30.07,30.01,10,10,10,12,5,16,0.00,3,,162
2011-10-11,79,66,53,61,56,51,100,72,43,30.01,29.95,29.86,10,7,0,14,4,21,0.00,3,Fog,163
2011-10-12,73,63,53,63,58,53,97,87,76,29.84,29.72,29.63,10,8,0,21,6,28,0.81,6,Fog-Rain-Thunderstorm,151
2011-10-13,72,61,50,55,45,36,100,66,31,29.77,29.72,29.68,10,10,8,23,11,31,0.00,0,,294
2011-10-14,65,54,43,39,34,29,61,45,29,30.00,29.88,29.77,10,10,10,25,12,35,0.00,0,,288
2011-10-15,70,53,36,38,33,30,76,50,23,30.11,30.01,29.87,10,10,10,16,7,22,0.00,0,,240
2011-10-16,66,56,45,48,39,30,71,51,30,30.04,29.93,29.78,10,10,10,22,9,31,0.00,0,,296
2011-10-17,59,46,32,43,37,29,96,66,35,30.06,30.01,29.96,10,8,2,9,4,12,0.37,4,Rain-Thunderstorm,284
2011-10-18,50,45,40,39,35,32,93,72,50,30.00,29.96,29.91,10,10,10,20,10,25,0.00,4,,321
2011-10-19,48,44,39,37,33,31,76,67,58,29.95,29.93,29.90,10,10,7,20,11,25,0.00,8,Rain,336
2011-10-20,56,45,34,32,29,27,82,59,35,30.07,29.96,29.91,10,10,10,22,11,31,0.00,0,,304
2011-10-21,62,45,27,34,31,25,85,60,34,30.20,30.13,30.08,10,10,10,10,5,15,0.00,0,,250
2011-10-22,72,53,34,43,38,33,92,62,31,30.13,30.08,30.04,10,10,9,15,5,24,T,3,,289
2011-10-23,75,61,46,46,43,40,86,59,31,30.04,29.98,29.92,10,10,8,16,6,22,T,3,,225
2011-10-24,75,55,35,45,39,35,92,60,27,30.17,30.08,30.00,10,10,10,13,6,20,0.00,0,,191
2011-10-25,82,68,54,54,50,43,67,53,39,29.99,29.82,29.68,10,10,10,28,13,38,0.00,1,,219
2011-10-26,54,50,46,44,40,37,86,73,59,30.06,29.99,29.86,10,10,6,18,11,24,0.01,7,Rain,351
2011-10-27,57,43,28,39,32,24,100,66,32,30.20,30.13,30.04,10,10,10,14,5,20,T,2,Rain,337
2011-10-28,60,42,24,28,23,19,92,57,22,30.24,30.17,30.09,10,10,10,17,6,25,0.00,1,,266
2011-10-29,62,44,26,28,22,19,75,48,20,30.20,30.10,30.00,10,10,10,14,7,21,0.00,0,,221
2011-10-30,60,47,33,40,32,24,83,57,30,30.06,29.99,29.96,10,10,10,18,9,26,0.07,2,Rain,233
2011-10-31,61,45,28,30,26,24,85,55,25,30.17,30.10,30.05,10,10,10,10,6,14,0.00,0,,255